Time;durP1;ratioP1;P1;durP2;ratioP2;P2;SDS_P1;SDS_P2;PMS_P1;PMS_P2;Temp;Humidity;BMP_temperature;BMP_pressure;BME280_temperature;BME280_humidity;BME280_pressure;Samples;Min_cycle;Max_cycle;Signal;HPM_P1;HPM_P2
2022/08/01 00:00:37;;;;;;;4.45;2.40;;;21.50;76.70;;;;;;5086839;28;20020;-73
2022/08/01 00:03:03;;;;;;;2.60;2.40;;;21.50;77.00;;;;;;5083619;28;20043;-73
2022/08/01 00:05:29;;;;;;;2.33;1.95;;;21.50;77.20;;;;;;5074348;28;20488;-73
2022/08/01 00:07:55;;;;;;;2.63;2.05;;;21.40;77.30;;;;;;5082586;28;20024;-72
2022/08/01 00:10:21;;;;;;;3.20;2.20;;;21.40;77.30;;;;;;5083009;28;20074;-72
2022/08/01 00:12:46;;;;;;;2.17;1.98;;;21.40;77.40;;;;;;5088970;28;20032;-76
2022/08/01 00:15:15;;;;;;;3.90;2.20;;;21.40;77.50;;;;;;5090192;28;20028;-72
2022/08/01 00:17:42;;;;;;;2.35;2.15;;;21.40;77.70;;;;;;5091124;28;20024;-73
2022/08/01 00:20:10;;;;;;;3.47;1.85;;;21.40;77.70;;;;;;5084458;28;20147;-72
2022/08/01 00:22:36;;;;;;;2.20;2.10;;;21.30;77.90;;;;;;5086695;28;20177;-72
2022/08/01 00:25:04;;;;;;;2.17;2.00;;;21.30;78.00;;;;;;5089415;28;20103;-72
2022/08/01 00:27:30;;;;;;;2.67;1.83;;;21.30;78.20;;;;;;5089452;28;20028;-72
2022/08/01 00:29:55;;;;;;;2.55;2.35;;;21.30;78.20;;;;;;5091395;28;20024;-71
2022/08/01 00:32:21;;;;;;;2.72;2.20;;;21.30;78.40;;;;;;5079546;28;20028;-72
2022/08/01 00:34:47;;;;;;;2.17;2.03;;;21.30;78.50;;;;;;5072039;28;20032;-76
2022/08/01 00:37:13;;;;;;;2.15;2.03;;;21.20;78.60;;;;;;5091369;28;20024;-72
2022/08/01 00:39:38;;;;;;;2.67;2.40;;;21.20;78.80;;;;;;5071116;28;20027;-72
2022/08/01 00:42:09;;;;;;;2.50;2.30;;;21.20;79.00;;;;;;5088606;28;20021;-73
2022/08/01 00:44:35;;;;;;;2.30;2.10;;;21.20;79.20;;;;;;5084558;28;20491;-72
2022/08/01 00:47:00;;;;;;;2.85;2.33;;;21.10;79.50;;;;;;5088443;28;20063;-74
2022/08/01 00:49:27;;;;;;;4.05;2.28;;;21.10;79.60;;;;;;5076935;28;20428;-73
2022/08/01 00:51:53;;;;;;;3.53;1.98;;;21.10;79.80;;;;;;5089210;28;20055;-73
2022/08/01 00:54:19;;;;;;;4.78;2.10;;;21.10;79.70;;;;;;5088161;28;20457;-72
2022/08/01 00:56:45;;;;;;;2.58;1.95;;;21.10;79.80;;;;;;5086313;28;20112;-73
2022/08/01 00:59:12;;;;;;;4.40;1.98;;;21.10;80.00;;;;;;5081491;28;20510;-73
2022/08/01 01:01:38;;;;;;;1.92;1.80;;;21.10;80.20;;;;;;5090678;28;20024;-72
2022/08/01 01:04:03;;;;;;;2.35;2.03;;;21.00;80.20;;;;;;5084257;28;20033;-73
2022/08/01 01:07:07;;;;;;;3.20;2.38;;;21.00;80.30;;;;;;5070479;28;20055;-72
2022/08/01 01:09:51;;;;;;;3.33;2.38;;;21.00;80.50;;;;;;5033925;28;20037;-73
2022/08/01 01:12:38;;;;;;;2.47;2.28;;;21.00;80.80;;;;;;5072127;28;20133;-72
2022/08/01 01:15:16;;;;;;;3.55;2.22;;;20.90;81.10;;;;;;5071699;28;20039;-74
2022/08/01 01:18:08;;;;;;;2.75;1.98;;;20.90;81.40;;;;;;5072726;28;20105;-72
2022/08/01 01:20:39;;;;;;;3.63;2.60;;;20.90;81.70;;;;;;5071578;28;20429;-72
2022/08/01 01:23:42;;;;;;;4.45;2.33;;;20.90;82.00;;;;;;5067244;28;20040;-71
2022/08/01 01:26:20;;;;;;;2.30;2.10;;;20.80;82.20;;;;;;5072058;28;20024;-72
2022/08/01 01:28:54;;;;;;;2.42;2.20;;;20.80;82.60;;;;;;5066118;28;20115;-72
2022/08/01 01:31:23;;;;;;;4.75;2.60;;;20.80;82.90;;;;;;5068768;28;20104;-71
2022/08/01 01:33:50;;;;;;;2.58;2.38;;;20.80;83.10;;;;;;5072473;28;20040;-76
2022/08/01 01:36:17;;;;;;;2.90;1.95;;;20.80;83.20;;;;;;5071118;28;20024;-72
2022/08/01 01:38:45;;;;;;;3.33;2.00;;;20.80;83.40;;;;;;5065145;28;20389;-72
2022/08/01 01:41:12;;;;;;;3.17;2.30;;;20.80;83.50;;;;;;5060839;28;20021;-72
2022/08/01 01:43:39;;;;;;;3.72;2.50;;;20.80;83.90;;;;;;5071787;28;20028;-72
2022/08/01 01:46:08;;;;;;;3.67;2.28;;;20.70;84.10;;;;;;5071201;28;20096;-74
2022/08/01 01:48:36;;;;;;;2.30;2.10;;;20.70;84.50;;;;;;5072201;28;20482;-72
2022/08/01 01:51:03;;;;;;;3.28;2.00;;;20.70;84.80;;;;;;5066669;28;20028;-72
2022/08/01 01:53:31;;;;;;;2.67;2.40;;;20.70;85.00;;;;;;5063703;28;20044;-72
2022/08/01 01:55:59;;;;;;;2.53;2.13;;;20.70;85.20;;;;;;5071517;28;20028;-72
2022/08/01 01:58:27;;;;;;;2.47;2.08;;;20.70;85.50;;;;;;5072201;28;20074;-71
2022/08/01 02:00:56;;;;;;;2.80;2.35;;;20.60;85.70;;;;;;5067236;28;20032;-72
2022/08/01 02:03:23;;;;;;;2.73;2.37;;;20.60;86.00;;;;;;5069763;28;20032;-72
2022/08/01 02:05:52;;;;;;;2.92;2.50;;;20.60;86.30;;;;;;5071311;28;20025;-75
2022/08/01 02:08:18;;;;;;;2.95;2.33;;;20.60;86.70;;;;;;5065400;28;20021;-72
2022/08/01 02:13:32;;;;;;;3.67;2.42;;;20.60;87.20;;;;;;5071563;28;20542;-72
2022/08/01 02:15:58;;;;;;;2.75;2.35;;;20.50;87.60;;;;;;5067891;28;20412;-72
2022/08/01 02:18:24;;;;;;;2.20;2.08;;;20.50;87.90;;;;;;5073689;28;20071;-72
2022/08/01 02:20:52;;;;;;;3.72;2.33;;;20.50;88.10;;;;;;5070944;28;20072;-76
2022/08/01 02:23:18;;;;;;;3.65;2.60;;;20.50;89.10;;;;;;5071728;28;20032;-72
2022/08/01 02:25:49;;;;;;;3.15;2.17;;;20.40;89.00;;;;;;5071578;28;20025;-72
2022/08/01 02:28:28;;;;;;;2.53;2.33;;;20.40;89.30;;;;;;5067259;28;20036;-72
2022/08/01 02:31:00;;;;;;;2.63;2.42;;;20.30;89.70;;;;;;5058756;28;20091;-74
2022/08/01 02:33:51;;;;;;;4.03;2.42;;;20.30;90.00;;;;;;5071742;28;20033;-73
2022/08/01 02:36:19;;;;;;;2.33;2.13;;;20.30;90.10;;;;;;5071209;28;20055;-72
2022/08/01 02:38:46;;;;;;;2.47;2.13;;;20.20;90.30;;;;;;5069246;28;20031;-73
2022/08/01 02:41:19;;;;;;;4.05;2.40;;;20.30;90.50;;;;;;5067175;28;20195;-73
2022/08/01 02:43:49;;;;;;;2.97;2.10;;;20.30;90.70;;;;;;5071718;28;20040;-73
2022/08/01 02:46:24;;;;;;;2.83;2.38;;;20.20;90.80;;;;;;5070854;28;20143;-73
2022/08/01 02:48:53;;;;;;;2.97;2.05;;;20.20;91.00;;;;;;5071443;28;20115;-77
2022/08/01 02:51:21;;;;;;;2.90;2.10;;;20.20;91.20;;;;;;5061614;28;20021;-72
2022/08/01 02:53:49;;;;;;;6.28;3.58;;;20.20;91.40;;;;;;5051452;28;20033;-72
2022/08/01 02:56:17;;;;;;;2.58;2.38;;;20.10;91.70;;;;;;5063560;28;20027;-72
2022/08/01 02:58:44;;;;;;;4.35;2.50;;;20.10;92.00;;;;;;5064294;28;20094;-72
2022/08/01 03:01:10;;;;;;;2.75;2.30;;;20.00;92.30;;;;;;5070026;28;20538;-72
2022/08/01 03:03:37;;;;;;;2.60;2.40;;;20.00;92.50;;;;;;5064991;28;20021;-73
2022/08/01 03:06:04;;;;;;;4.28;2.30;;;20.00;92.80;;;;;;5070125;28;20028;-72
2022/08/01 03:08:31;;;;;;;2.60;2.40;;;20.00;93.10;;;;;;5070866;28;20063;-72
2022/08/01 03:10:59;;;;;;;3.28;2.45;;;20.00;93.40;;;;;;5064615;28;20029;-72
2022/08/01 03:13:27;;;;;;;3.00;2.47;;;19.90;93.70;;;;;;5065428;28;20083;-72
2022/08/01 03:15:55;;;;;;;3.47;2.30;;;19.90;94.10;;;;;;5064714;28;20147;-76
2022/08/01 03:18:24;;;;;;;4.32;2.47;;;19.80;94.40;;;;;;5070843;28;20074;-71
2022/08/01 03:20:52;;;;;;;2.50;2.28;;;19.80;94.80;;;;;;5070244;28;20456;-76
2022/08/01 03:23:20;;;;;;;2.60;2.40;;;19.80;95.20;;;;;;5070619;28;20031;-72
2022/08/01 03:25:48;;;;;;;3.70;2.35;;;19.70;95.50;;;;;;5053089;28;20408;-72
2022/08/01 03:28:16;;;;;;;3.83;2.50;;;19.70;95.90;;;;;;5062811;28;20058;-72
2022/08/01 03:30:42;;;;;;;3.25;2.53;;;19.70;96.30;;;;;;5071269;28;20032;-71
2022/08/01 03:33:09;;;;;;;2.47;2.28;;;19.70;96.60;;;;;;5070053;28;20032;-72
2022/08/01 03:35:39;;;;;;;2.60;2.40;;;19.70;97.10;;;;;;5069350;28;20042;-72
2022/08/01 03:38:08;;;;;;;3.60;2.53;;;19.70;97.40;;;;;;5069876;28;20444;-71
2022/08/01 03:40:36;;;;;;;3.13;2.50;;;19.70;97.80;;;;;;5061965;28;20134;-72
2022/08/01 03:43:07;;;;;;;2.45;2.20;;;19.70;98.20;;;;;;5064487;28;20453;-74
2022/08/01 03:45:38;;;;;;;3.03;2.20;;;19.60;98.60;;;;;;5058934;28;20021;-72
2022/08/01 03:48:09;;;;;;;2.33;2.13;;;19.60;98.90;;;;;;5069324;28;20037;-71
2022/08/01 03:50:37;;;;;;;3.13;2.33;;;19.60;99.40;;;;;;5060758;28;20032;-73
2022/08/01 03:53:06;;;;;;;3.45;2.17;;;19.60;99.80;;;;;;5069543;28;20120;-74
2022/08/01 03:55:32;;;;;;;3.35;2.03;;;19.50;99.90;;;;;;5060579;28;20092;-73
2022/08/01 03:58:00;;;;;;;2.45;2.25;;;19.50;99.90;;;;;;5061372;28;20115;-73
2022/08/01 04:00:27;;;;;;;2.28;2.08;;;19.50;99.90;;;;;;5060148;28;20028;-72
2022/08/01 04:02:53;;;;;;;3.83;2.38;;;19.50;99.90;;;;;;5064490;28;20066;-77
2022/08/01 04:05:18;;;;;;;4.63;2.50;;;19.50;99.90;;;;;;5070114;28;20020;-72
2022/08/01 04:07:55;;;;;;;2.25;2.05;;;19.60;99.90;;;;;;5069751;28;20355;-72
2022/08/01 04:10:24;;;;;;;2.80;2.45;;;19.60;99.90;;;;;;5068044;28;20028;-72
2022/08/01 04:12:50;;;;;;;3.60;2.58;;;19.60;99.90;;;;;;5069840;28;20032;-73
2022/08/01 04:15:15;;;;;;;4.90;2.50;;;19.60;99.90;;;;;;5069491;28;20028;-72
2022/08/01 04:17:41;;;;;;;3.08;2.30;;;19.60;99.90;;;;;;5060464;28;20393;-72
2022/08/01 04:20:07;;;;;;;2.58;2.13;;;19.70;99.90;;;;;;5074917;28;20032;-72
2022/08/01 04:22:33;;;;;;;3.15;2.42;;;19.70;99.90;;;;;;5066970;28;20040;-72
2022/08/01 04:25:02;;;;;;;5.30;2.30;;;19.80;99.90;;;;;;5061540;28;20032;-73
2022/08/01 04:27:35;;;;;;;2.80;2.15;;;19.90;99.90;;;;;;5070173;28;20346;-73
2022/08/01 04:30:00;;;;;;;4.13;2.25;;;20.00;99.90;;;;;;5072019;28;20025;-73
2022/08/01 04:32:31;;;;;;;2.08;1.98;;;20.00;99.90;;;;;;5073901;28;20588;-72
2022/08/01 04:34:59;;;;;;;2.22;2.00;;;20.00;99.90;;;;;;5059238;28;20417;-73
2022/08/01 04:37:25;;;;;;;2.65;2.05;;;20.10;99.90;;;;;;5071509;28;20029;-72
2022/08/01 04:39:54;;;;;;;2.95;2.17;;;20.10;99.90;;;;;;5071532;28;20029;-73
2022/08/01 04:42:20;;;;;;;4.20;2.30;;;20.20;99.90;;;;;;5073474;28;20028;-72
2022/08/01 04:44:45;;;;;;;4.18;1.65;;;20.30;99.90;;;;;;5073676;28;20035;-73
2022/08/01 04:47:13;;;;;;;2.28;2.08;;;20.30;99.90;;;;;;5064120;28;20381;-72
2022/08/01 04:49:40;;;;;;;3.67;2.33;;;20.40;99.90;;;;;;5072417;28;20431;-74
2022/08/01 04:52:06;;;;;;;2.92;1.65;;;20.50;99.90;;;;;;5069109;28;20032;-73
2022/08/01 04:54:36;;;;;;;6.18;2.53;;;20.50;99.90;;;;;;5073005;28;20386;-72
2022/08/01 04:57:06;;;;;;;6.38;2.55;;;20.60;99.90;;;;;;5071944;28;20103;-72
2022/08/01 04:59:41;;;;;;;2.60;2.03;;;20.60;99.90;;;;;;5067183;28;20028;-72
2022/08/01 05:02:17;;;;;;;2.22;1.85;;;20.70;99.90;;;;;;5066866;28;20052;-72
2022/08/01 05:04:44;;;;;;;2.13;1.70;;;20.80;99.90;;;;;;5073410;28;20060;-72
2022/08/01 05:07:10;;;;;;;2.83;2.00;;;20.80;99.90;;;;;;5070229;28;20028;-72
2022/08/01 05:09:37;;;;;;;3.63;2.03;;;20.80;99.90;;;;;;5062441;28;20454;-72
2022/08/01 05:12:05;;;;;;;2.17;1.80;;;20.90;99.90;;;;;;5068335;28;20044;-72
2022/08/01 05:14:31;;;;;;;2.85;2.05;;;20.90;99.90;;;;;;5072808;28;20124;-72
2022/08/01 05:17:07;;;;;;;3.55;1.83;;;20.90;99.90;;;;;;5070716;28;20021;-77
2022/08/01 05:19:34;;;;;;;2.20;2.03;;;20.90;99.90;;;;;;5073593;28;20044;-72
2022/08/01 05:22:01;;;;;;;3.15;1.90;;;20.90;99.90;;;;;;5064262;28;20048;-72
2022/08/01 05:24:33;;;;;;;2.25;1.83;;;21.00;99.90;;;;;;5072597;28;20381;-72
2022/08/01 05:26:59;;;;;;;6.82;2.30;;;21.10;99.90;;;;;;5071965;28;20024;-72
2022/08/01 05:29:25;;;;;;;4.32;1.70;;;21.20;99.90;;;;;;5073041;28;20028;-72
2022/08/01 05:31:52;;;;;;;3.05;1.58;;;21.40;99.90;;;;;;5073151;28;20042;-72
2022/08/01 05:34:18;;;;;;;1.83;1.70;;;21.50;99.90;;;;;;5069862;28;20605;-71
2022/08/01 05:36:44;;;;;;;2.38;1.85;;;21.60;99.90;;;;;;5072792;28;20052;-71
2022/08/01 05:39:10;;;;;;;5.10;2.00;;;21.70;99.90;;;;;;5069535;28;20056;-72
2022/08/01 05:41:37;;;;;;;1.85;1.50;;;21.80;99.90;;;;;;5062811;28;20056;-72
2022/08/01 05:44:04;;;;;;;1.63;1.50;;;21.80;99.90;;;;;;5089564;28;20024;-73
2022/08/01 05:46:30;;;;;;;2.33;1.70;;;21.80;99.90;;;;;;5090121;28;20027;-72
2022/08/01 05:48:56;;;;;;;6.85;2.00;;;21.90;99.90;;;;;;5107999;28;20032;-79
2022/08/01 05:51:22;;;;;;;2.10;1.63;;;22.00;99.90;;;;;;5092728;28;20457;-73
2022/08/01 05:53:48;;;;;;;2.55;1.92;;;22.00;99.90;;;;;;5092037;28;20032;-74
2022/08/01 05:56:14;;;;;;;3.08;2.08;;;22.10;99.90;;;;;;5091594;28;20028;-73
2022/08/01 05:58:39;;;;;;;3.15;1.90;;;22.20;99.90;;;;;;5086511;28;20047;-73
2022/08/01 06:01:05;;;;;;;3.15;1.80;;;22.30;99.90;;;;;;5097006;28;20019;-73
2022/08/01 06:03:32;;;;;;;1.98;1.77;;;22.50;99.90;;;;;;5086547;28;20027;-73
2022/08/01 06:05:59;;;;;;;1.95;1.75;;;22.60;99.90;;;;;;5093269;28;20016;-78
2022/08/01 06:08:25;;;;;;;1.85;1.52;;;22.70;99.70;;;;;;5104254;28;20549;-73
2022/08/01 06:10:50;;;;;;;1.35;1.25;;;22.80;99.60;;;;;;5094445;28;20032;-73
2022/08/01 06:13:18;;;;;;;1.75;1.40;;;22.90;99.50;;;;;;5085297;28;20623;-73
2022/08/01 06:15:44;;;;;;;2.17;1.70;;;23.10;99.30;;;;;;5092384;28;20028;-75
2022/08/01 06:18:09;;;;;;;3.95;1.33;;;23.20;99.20;;;;;;5094140;28;20483;-95
2022/08/01 06:20:35;;;;;;;3.58;1.30;;;23.20;99.00;;;;;;5089358;28;20028;-88
2022/08/01 06:23:01;;;;;;;2.40;1.33;;;23.30;98.90;;;;;;5068001;28;20103;-87
2022/08/01 06:25:26;;;;;;;1.83;1.30;;;23.40;98.80;;;;;;5075244;28;20112;-93
2022/08/01 06:27:52;;;;;;;2.95;1.20;;;23.50;98.70;;;;;;5069740;28;20029;-88
2022/08/01 06:30:18;;;;;;;2.30;1.35;;;23.50;98.60;;;;;;5070287;28;20263;-87
2022/08/01 06:32:44;;;;;;;1.45;1.30;;;23.60;98.70;;;;;;5065675;28;20037;-87
2022/08/01 06:35:10;;;;;;;3.67;1.52;;;23.70;98.50;;;;;;5062211;28;20028;-89
2022/08/01 06:37:36;;;;;;;1.48;1.15;;;23.70;98.40;;;;;;5073400;28;20024;-85
2022/08/01 06:40:03;;;;;;;1.85;1.08;;;23.80;98.40;;;;;;5069710;28;20024;-85
2022/08/01 06:42:31;;;;;;;1.83;1.20;;;23.80;98.50;;;;;;5105135;28;20377;-86
2022/08/01 06:44:57;;;;;;;4.50;1.33;;;23.80;98.30;;;;;;5065502;28;20040;-91
2022/08/01 06:47:23;;;;;;;1.70;1.33;;;23.80;98.30;;;;;;5098010;28;20025;-89
2022/08/01 06:49:48;;;;;;;1.90;1.10;;;23.80;98.30;;;;;;5104698;28;20341;-86
2022/08/01 06:52:14;;;;;;;3.80;0.82;;;23.90;98.10;;;;;;5069306;28;20028;-91
2022/08/01 06:54:40;;;;;;;2.17;1.35;;;24.00;97.90;;;;;;5065161;28;20029;-86
2022/08/01 06:57:05;;;;;;;1.88;1.10;;;24.00;97.80;;;;;;5066611;28;20495;-89
2022/08/01 06:59:31;;;;;;;2.05;1.13;;;24.00;97.60;;;;;;5070433;28;20036;-87
2022/08/01 07:01:57;;;;;;;1.63;1.20;;;24.00;97.90;;;;;;5097756;28;20035;-87
2022/08/01 07:04:22;;;;;;;3.00;1.63;;;24.10;97.30;;;;;;5077502;28;20025;-84
2022/08/01 07:06:48;;;;;;;2.80;1.27;;;24.20;97.10;;;;;;5087334;28;20034;-83
2022/08/01 07:09:13;;;;;;;1.35;1.25;;;24.20;97.10;;;;;;5087582;28;20033;-84
2022/08/01 07:11:39;;;;;;;2.35;1.23;;;24.20;96.80;;;;;;5070799;28;20149;-85
2022/08/01 07:14:05;;;;;;;2.15;1.33;;;24.30;96.80;;;;;;5079875;28;20032;-84
2022/08/01 07:16:30;;;;;;;1.30;1.20;;;24.50;96.40;;;;;;5093274;28;20031;-83
2022/08/01 07:18:56;;;;;;;1.45;1.33;;;24.70;96.10;;;;;;5076768;28;20047;-87
2022/08/01 07:21:22;;;;;;;1.83;1.30;;;24.80;96.00;;;;;;5073865;28;20544;-85
2022/08/01 07:23:48;;;;;;;2.13;1.20;;;25.00;95.80;;;;;;5074156;28;20100;-84
2022/08/01 07:26:13;;;;;;;1.60;1.10;;;25.00;95.50;;;;;;5081280;28;20027;-85
2022/08/01 07:28:39;;;;;;;1.52;1.25;;;24.90;95.50;;;;;;5076801;28;20032;-87
2022/08/01 07:31:04;;;;;;;3.78;1.30;;;24.80;95.60;;;;;;5069568;28;20025;-86
2022/08/01 07:33:30;;;;;;;2.30;1.15;;;24.70;95.70;;;;;;5079103;28;20036;-85
2022/08/01 07:35:56;;;;;;;1.95;1.42;;;24.60;95.80;;;;;;5089795;28;20073;-87
2022/08/01 07:38:21;;;;;;;1.25;1.10;;;24.50;96.00;;;;;;5090238;28;20027;-86
2022/08/01 07:40:48;;;;;;;2.38;1.45;;;24.60;95.90;;;;;;5086336;28;20500;-85
2022/08/01 07:43:14;;;;;;;1.38;1.15;;;24.60;95.70;;;;;;5087227;28;20044;-85
2022/08/01 07:45:41;;;;;;;2.85;1.30;;;24.70;95.80;;;;;;5089021;28;20024;-84
2022/08/01 07:48:06;;;;;;;2.92;1.40;;;24.80;95.90;;;;;;5067175;28;20036;-89
2022/08/01 07:50:35;;;;;;;1.67;1.48;;;25.00;95.60;;;;;;5088432;28;20024;-89
2022/08/01 07:53:02;;;;;;;2.88;1.73;;;25.20;95.00;;;;;;5085981;28;20102;-87
2022/08/01 07:55:28;;;;;;;3.22;1.45;;;25.20;94.80;;;;;;5062290;28;20032;-90
2022/08/01 07:57:53;;;;;;;1.40;1.20;;;25.10;95.20;;;;;;5079823;28;20174;-89
2022/08/01 08:00:19;;;;;;;3.80;1.63;;;25.10;94.50;;;;;;5065883;28;20070;-88
2022/08/01 08:02:44;;;;;;;3.00;1.85;;;25.10;94.80;;;;;;5075804;28;20035;-89
2022/08/01 08:05:11;;;;;;;2.13;1.73;;;25.40;94.00;;;;;;5086892;28;20020;-90
2022/08/01 08:07:37;;;;;;;2.78;1.42;;;25.60;94.10;;;;;;5089233;28;20051;-91
2022/08/01 08:10:04;;;;;;;2.53;1.15;;;25.80;93.70;;;;;;5104790;28;20029;-89
2022/08/01 08:12:29;;;;;;;3.10;1.52;;;25.80;93.60;;;;;;5088822;28;20047;-91
2022/08/01 08:14:58;;;;;;;6.05;1.77;;;25.80;93.50;;;;;;5096262;28;20107;-92
2022/08/01 08:17:24;;;;;;;1.60;1.50;;;25.80;93.20;;;;;;5107290;28;20043;-93
2022/08/01 08:19:50;;;;;;;2.58;1.40;;;25.80;93.40;;;;;;5088792;28;20073;-91
2022/08/01 08:22:15;;;;;;;3.22;1.30;;;25.80;93.50;;;;;;5080438;28;20520;-90
2022/08/01 08:24:41;;;;;;;2.63;2.13;;;25.80;93.30;;;;;;5092526;28;20105;-90
2022/08/01 08:27:07;;;;;;;1.52;1.42;;;25.90;93.00;;;;;;5092584;28;20083;-89
2022/08/01 08:29:33;;;;;;;5.00;1.60;;;26.00;93.20;;;;;;5075878;28;20028;-93
2022/08/01 08:32:00;;;;;;;1.75;1.40;;;26.20;92.70;;;;;;5086103;28;20074;-88
2022/08/01 08:34:27;;;;;;;3.15;1.73;;;26.40;92.60;;;;;;5089661;28;20470;-90
2022/08/01 08:36:54;;;;;;;2.65;2.13;;;26.50;92.40;;;;;;5096605;28;20036;-92
2022/08/01 08:39:20;;;;;;;1.95;1.63;;;26.70;91.90;;;;;;5082375;28;20017;-93
2022/08/01 08:41:46;;;;;;;3.00;1.75;;;26.90;91.40;;;;;;5103269;28;20025;-95
2022/08/01 08:44:12;;;;;;;5.00;1.80;;;27.00;91.20;;;;;;5095108;28;20080;-94
2022/08/01 08:46:46;;;;;;;1.70;1.60;;;27.20;91.40;;;;;;5096577;28;20476;-77
2022/08/01 08:49:15;;;;;;;2.05;1.85;;;27.30;90.60;;;;;;5086318;28;20125;-77
2022/08/01 08:51:43;;;;;;;4.10;2.55;;;27.30;90.90;;;;;;5088921;28;20103;-77
2022/08/01 08:54:12;;;;;;;3.72;2.28;;;27.20;90.50;;;;;;5081091;28;20086;-76
2022/08/01 08:56:38;;;;;;;4.22;2.17;;;27.30;90.80;;;;;;5078483;28;20024;-77
2022/08/01 08:59:04;;;;;;;2.58;2.38;;;27.20;90.60;;;;;;5084245;28;20029;-76
2022/08/01 09:01:35;;;;;;;2.72;2.53;;;27.00;90.80;;;;;;5089564;28;20028;-78
2022/08/01 09:04:04;;;;;;;4.18;2.40;;;26.90;90.90;;;;;;5085931;28;20032;-79
2022/08/01 09:06:30;;;;;;;3.57;2.77;;;26.90;90.60;;;;;;5080012;28;20028;-78
2022/08/01 09:08:57;;;;;;;4.93;3.15;;;26.90;90.60;;;;;;5090334;28;20032;-76
2022/08/01 09:11:23;;;;;;;4.10;3.38;;;26.90;90.70;;;;;;5090344;28;20032;-76
2022/08/01 09:14:04;;;;;;;4.15;2.80;;;26.90;90.70;;;;;;5083124;28;20040;-77
2022/08/01 09:16:33;;;;;;;6.00;3.38;;;26.90;90.50;;;;;;5074035;28;20465;-77
2022/08/01 09:19:16;;;;;;;5.25;4.40;;;26.90;90.80;;;;;;5083422;28;20033;-80
2022/08/01 09:22:04;;;;;;;10.68;4.97;;;26.80;90.40;;;;;;5072999;28;20401;-76
2022/08/01 09:24:31;;;;;;;8.63;5.38;;;26.60;90.30;;;;;;5061588;28;20024;-76
2022/08/01 09:26:58;;;;;;;8.40;5.35;;;26.50;90.60;;;;;;5067681;28;20112;-77
2022/08/01 09:29:27;;;;;;;6.30;5.20;;;26.50;90.80;;;;;;5051272;28;20057;-77
2022/08/01 09:31:53;;;;;;;6.35;5.43;;;26.70;90.60;;;;;;5059687;28;20029;-78
2022/08/01 09:34:27;;;;;;;7.72;5.32;;;26.90;90.00;;;;;;5064664;28;20036;-76
2022/08/01 09:36:58;;;;;;;7.72;5.57;;;27.00;90.20;;;;;;5067508;28;20032;-76
2022/08/01 09:39:39;;;;;;;9.13;4.80;;;26.90;90.10;;;;;;5050709;28;20123;-77
2022/08/01 09:42:23;;;;;;;5.40;4.28;;;27.00;90.00;;;;;;5043036;28;20024;-77
2022/08/01 09:44:50;;;;;;;5.22;4.40;;;27.20;89.50;;;;;;5066672;28;20386;-78
2022/08/01 09:47:16;;;;;;;7.03;4.57;;;27.30;89.40;;;;;;5065889;28;20031;-77
2022/08/01 09:49:43;;;;;;;5.50;4.78;;;27.50;88.80;;;;;;5051152;28;20086;-77
2022/08/01 09:52:18;;;;;;;4.90;4.40;;;27.70;88.40;;;;;;5046192;28;20036;-77
2022/08/01 09:54:52;;;;;;;5.90;4.13;;;27.80;87.40;;;;;;5057553;28;20164;-77
2022/08/01 09:57:20;;;;;;;4.35;3.80;;;27.90;88.50;;;;;;5053105;28;20054;-77
2022/08/01 09:59:49;;;;;;;5.70;3.95;;;28.10;86.50;;;;;;5045824;28;20116;-77
2022/08/01 10:02:36;;;;;;;7.55;3.92;;;28.00;86.70;;;;;;5031388;28;20052;-76
2022/08/01 10:05:05;;;;;;;6.40;4.28;;;28.00;87.10;;;;;;5047058;28;20091;-80
2022/08/01 10:07:30;;;;;;;5.15;4.05;;;28.20;86.00;;;;;;5049519;28;20082;-77
2022/08/01 10:10:12;;;;;;;6.00;4.63;;;28.20;86.50;;;;;;5036891;28;20025;-77
2022/08/01 10:12:39;;;;;;;4.45;4.10;;;28.20;86.00;;;;;;5026442;28;20052;-75
2022/08/01 10:15:06;;;;;;;8.35;3.88;;;28.30;85.70;;;;;;5039663;28;20032;-76
2022/08/01 10:17:34;;;;;;;6.47;3.83;;;28.20;84.60;;;;;;5037121;28;20394;-75
2022/08/01 10:20:02;;;;;;;5.07;3.65;;;28.20;85.30;;;;;;5051460;28;20052;-80
2022/08/01 10:22:30;;;;;;;9.13;4.20;;;28.20;85.30;;;;;;5090713;28;20485;-75
2022/08/01 10:24:58;;;;;;;6.80;3.67;;;28.30;84.50;;;;;;5094823;28;20031;-76
2022/08/01 10:27:26;;;;;;;9.45;3.85;;;28.60;83.60;;;;;;5096500;28;20024;-77
2022/08/01 10:30:05;;;;;;;5.78;3.25;;;28.70;83.40;;;;;;5092784;28;20137;-78
2022/08/01 10:32:31;;;;;;;5.75;4.10;;;28.90;83.80;;;;;;5091069;28;20028;-79
2022/08/01 10:34:58;;;;;;;4.15;3.38;;;29.00;82.70;;;;;;5087338;28;20032;-79
2022/08/01 10:37:25;;;;;;;4.53;3.25;;;29.00;82.50;;;;;;5082451;28;20033;-79
2022/08/01 10:39:55;;;;;;;4.57;3.15;;;29.10;81.90;;;;;;5099436;28;20032;-78
2022/08/01 10:42:20;;;;;;;3.65;2.90;;;29.20;81.60;;;;;;5089195;28;20047;-77
2022/08/01 10:44:47;;;;;;;3.15;2.85;;;29.20;80.60;;;;;;5083314;28;20477;-75
2022/08/01 10:47:17;;;;;;;3.05;2.22;;;29.20;80.60;;;;;;5084095;28;20055;-75
2022/08/01 10:49:43;;;;;;;;;;;29.10;82.10;;;;;;5099510;28;20063;-75
2022/08/01 10:52:15;;;;;;;5.70;2.72;;;28.90;80.70;;;;;;5087784;28;20396;-76
2022/08/01 10:54:40;;;;;;;2.60;2.40;;;28.60;81.50;;;;;;5084498;28;20120;-74
2022/08/01 10:57:07;;;;;;;2.25;2.13;;;28.20;81.40;;;;;;5092422;28;20114;-74
2022/08/01 10:59:35;;;;;;;3.13;2.25;;;27.90;82.30;;;;;;5091096;28;20062;-74
2022/08/01 11:02:03;;;;;;;2.95;2.40;;;27.60;82.90;;;;;;5092316;28;20543;-77
2022/08/01 11:04:34;;;;;;;3.45;3.15;;;27.50;83.10;;;;;;5091256;28;20089;-75
2022/08/01 11:07:08;;;;;;;4.10;3.33;;;27.30;83.20;;;;;;5095582;28;20108;-76
2022/08/01 11:09:45;;;;;;;3.20;2.90;;;27.20;83.60;;;;;;5092462;28;20028;-76
2022/08/01 11:12:13;;;;;;;3.33;3.00;;;27.10;83.90;;;;;;5084674;28;20029;-76
2022/08/01 11:15:07;;;;;;;4.75;2.30;;;27.20;83.90;;;;;;5093337;28;20495;-76
2022/08/01 11:17:50;;;;;;;3.05;2.42;;;27.60;83.50;;;;;;5098282;28;20028;-75
2022/08/01 11:20:23;;;;;;;2.25;2.15;;;28.00;83.30;;;;;;5088628;28;20473;-76
2022/08/01 11:23:03;;;;;;;2.55;2.35;;;28.20;82.60;;;;;;5085012;28;20046;-76
2022/08/01 11:25:38;;;;;;;2.63;2.42;;;28.20;81.40;;;;;;5085785;28;20099;-76
2022/08/01 11:28:16;;;;;;;3.67;2.70;;;28.10;81.40;;;;;;5087659;28;20469;-78
2022/08/01 11:31:07;;;;;;;3.00;2.70;;;27.90;80.80;;;;;;5083944;28;20031;-77
2022/08/01 11:33:41;;;;;;;3.08;2.78;;;27.80;81.00;;;;;;5091292;28;20036;-76
2022/08/01 11:36:10;;;;;;;7.20;2.50;;;27.80;81.50;;;;;;5084934;28;20047;-76
2022/08/01 11:38:37;;;;;;;3.63;2.45;;;27.90;81.80;;;;;;5093191;28;20032;-76
2022/08/01 11:41:23;;;;;;;2.78;2.28;;;28.20;81.50;;;;;;5098429;28;20032;-78
2022/08/01 11:44:02;;;;;;;2.28;1.90;;;28.70;79.90;;;;;;5094501;28;20035;-75
2022/08/01 11:46:50;;;;;;;5.82;2.38;;;28.90;78.60;;;;;;5088853;28;20051;-76
2022/08/01 11:49:44;;;;;;;3.30;2.05;;;29.30;78.40;;;;;;5096578;28;20032;-76
2022/08/01 11:52:23;;;;;;;2.20;2.10;;;29.70;78.30;;;;;;5097846;28;20040;-75
2022/08/01 11:55:07;;;;;;;3.28;2.03;;;29.90;76.40;;;;;;5105559;27;20594;-75
2022/08/01 11:57:37;;;;;;;2.53;2.33;;;29.80;75.60;;;;;;5093758;28;20032;-77
2022/08/01 12:00:13;;;;;;;5.03;2.33;;;29.60;75.70;;;;;;5096531;28;20026;-75
2022/08/01 12:02:39;;;;;;;2.30;2.10;;;29.60;75.80;;;;;;5099441;28;20032;-75
2022/08/01 12:05:11;;;;;;;3.78;2.28;;;29.70;75.80;;;;;;5096124;28;20123;-78
2022/08/01 12:07:40;;;;;;;1.90;1.77;;;29.60;75.80;;;;;;5095476;28;20457;-75
2022/08/01 12:10:10;;;;;;;2.85;2.42;;;29.50;75.90;;;;;;5095161;28;20085;-76
2022/08/01 12:12:36;;;;;;;;;;;29.20;76.10;;;;;;5095934;28;20844;-76
2022/08/01 12:15:08;;;;;;;3.22;2.03;;;28.90;76.30;;;;;;5100667;28;20369;-79
2022/08/01 12:17:57;;;;;;;2.38;1.80;;;28.70;77.30;;;;;;5100840;28;20036;-76
2022/08/01 12:20:24;;;;;;;2.97;2.38;;;28.80;77.50;;;;;;5095269;28;20536;-75
2022/08/01 12:23:01;;;;;;;2.72;2.00;;;29.10;76.70;;;;;;5079195;28;20423;-76
2022/08/01 12:25:27;;;;;;;2.83;2.33;;;29.10;75.30;;;;;;5099301;28;20020;-76
2022/08/01 12:27:53;;;;;;;2.75;2.30;;;29.00;75.50;;;;;;5094941;28;20055;-78
2022/08/01 12:30:24;;;;;;;2.28;2.08;;;28.90;76.10;;;;;;5091459;28;20040;-76
2022/08/01 12:32:51;;;;;;;2.17;2.00;;;28.70;75.70;;;;;;5091819;28;20073;-75
2022/08/01 12:35:23;;;;;;;2.08;1.98;;;28.50;76.00;;;;;;5090561;28;20447;-76
2022/08/01 12:37:54;;;;;;;3.65;2.40;;;28.40;76.00;;;;;;5095357;28;20096;-76
2022/08/01 12:40:21;;;;;;;3.10;2.38;;;28.30;77.20;;;;;;5098013;28;20036;-75
2022/08/01 12:42:52;;;;;;;6.68;2.20;;;28.10;77.80;;;;;;5099458;28;20024;-76
2022/08/01 12:45:24;;;;;;;3.63;1.90;;;27.90;78.00;;;;;;5101743;28;20028;-75
2022/08/01 12:47:52;;;;;;;1.98;1.88;;;28.10;78.00;;;;;;5098706;28;20024;-75
2022/08/01 12:50:20;;;;;;;4.50;2.22;;;28.90;77.40;;;;;;5096317;28;20024;-77
2022/08/01 12:52:47;;;;;;;2.88;2.42;;;30.00;75.50;;;;;;5100403;28;20023;-77
2022/08/01 12:55:21;;;;;;;4.00;2.00;;;30.50;74.70;;;;;;5091639;28;20032;-75
2022/08/01 12:58:04;;;;;;;3.53;2.22;;;30.70;73.40;;;;;;5095349;28;20085;-76
2022/08/01 13:00:31;;;;;;;4.00;2.10;;;30.30;72.80;;;;;;5107875;27;20464;-76